Time;durP1;ratioP1;P1;durP2;ratioP2;P2;SDS_P1;SDS_P2;PMS_P1;PMS_P2;Temp;Humidity;BMP_temperature;BMP_pressure;BME280_temperature;BME280_humidity;BME280_pressure;Samples;Min_cycle;Max_cycle;Signal;HPM_P1;HPM_P2
2022/01/19 00:01:45;;;;;;;4.93;3.20;;;6.20;99.90;;;;;;5043409;28;20959;-55
2022/01/19 00:04:12;;;;;;;3.73;2.30;;;6.10;99.90;;;;;;5045494;28;20472;-53
2022/01/19 00:06:39;;;;;;;3.10;2.10;;;6.20;99.90;;;;;;5046239;28;20428;-54
2022/01/19 00:09:06;;;;;;;3.43;2.27;;;6.10;99.90;;;;;;5044973;28;20509;-54
2022/01/19 00:11:32;;;;;;;10.40;2.53;;;6.10;99.90;;;;;;5046039;28;20468;-57
2022/01/19 00:13:59;;;;;;;7.63;2.23;;;6.10;99.90;;;;;;5046141;28;20452;-54
2022/01/19 00:16:27;;;;;;;8.80;2.73;;;6.10;99.90;;;;;;5045310;28;20448;-53
2022/01/19 00:18:54;;;;;;;4.47;2.63;;;6.10;99.90;;;;;;5044950;28;20806;-54
2022/01/19 00:21:21;;;;;;;4.80;1.60;;;6.10;99.90;;;;;;5046557;28;20457;-55
2022/01/19 00:23:47;;;;;;;6.20;2.80;;;6.10;99.90;;;;;;5047133;28;20448;-57
2022/01/19 00:26:14;;;;;;;3.83;2.40;;;6.10;99.90;;;;;;5046617;28;20453;-55
2022/01/19 00:28:41;;;;;;;3.00;2.50;;;6.10;99.90;;;;;;5046811;28;20448;-51
2022/01/19 00:31:07;;;;;;;4.60;2.73;;;6.10;99.90;;;;;;5045740;28;20896;-55
2022/01/19 00:33:36;;;;;;;11.30;2.53;;;6.10;99.90;;;;;;5044937;28;20464;-52
2022/01/19 00:36:03;;;;;;;3.50;2.47;;;6.10;99.90;;;;;;5045430;28;20454;-52
2022/01/19 00:38:30;;;;;;;8.17;3.47;;;6.10;99.90;;;;;;5044994;28;20488;-51
2022/01/19 00:40:57;;;;;;;10.67;2.60;;;6.10;99.90;;;;;;5046178;28;20448;-53
2022/01/19 00:43:24;;;;;;;7.60;2.60;;;6.10;99.90;;;;;;5045826;28;20539;-54
2022/01/19 00:45:51;;;;;;;11.37;3.90;;;6.10;99.90;;;;;;5045902;28;20440;-53
2022/01/19 00:48:17;;;;;;;4.50;2.57;;;6.10;99.90;;;;;;5045437;28;20448;-52
2022/01/19 00:50:45;;;;;;;5.17;3.50;;;6.10;99.90;;;;;;5046320;28;20848;-56
2022/01/19 00:53:12;;;;;;;8.20;2.10;;;6.10;99.90;;;;;;5046263;28;20424;-57
2022/01/19 00:55:39;;;;;;;12.37;2.87;;;6.00;99.90;;;;;;5046256;28;20448;-55
2022/01/19 00:58:05;;;;;;;4.03;2.13;;;6.00;99.90;;;;;;5046890;28;20492;-55
2022/01/19 01:00:32;;;;;;;5.20;2.77;;;6.10;99.90;;;;;;5046885;28;20486;-57
2022/01/19 01:02:59;;;;;;;11.53;2.50;;;6.00;99.90;;;;;;5046425;28;20815;-55
2022/01/19 01:05:26;;;;;;;4.33;2.53;;;6.10;99.90;;;;;;5046045;28;20449;-57
2022/01/19 01:07:54;;;;;;;2.77;2.10;;;6.10;99.90;;;;;;5045709;28;20460;-54
2022/01/19 01:10:21;;;;;;;11.00;3.63;;;6.10;99.90;;;;;;5045696;28;20468;-56
2022/01/19 01:12:50;;;;;;;4.37;2.50;;;6.10;99.90;;;;;;5045162;28;20509;-57
2022/01/19 01:15:26;;;;;;;4.90;2.27;;;6.10;99.90;;;;;;5045162;28;20440;-58
2022/01/19 01:20:39;;;;;;;6.63;2.80;;;6.10;99.90;;;;;;5045354;28;20412;-58
2022/01/19 01:23:10;;;;;;;17.97;5.03;;;6.20;99.90;;;;;;5045145;28;20918;-57
2022/01/19 01:25:38;;;;;;;4.50;2.23;;;6.10;99.90;;;;;;5046689;28;20461;-57
2022/01/19 01:28:05;;;;;;;7.37;3.20;;;6.10;99.90;;;;;;5047307;28;20440;-56
2022/01/19 01:30:33;;;;;;;17.43;2.20;;;6.10;99.90;;;;;;5047200;28;20503;-58
2022/01/19 01:32:59;;;;;;;11.07;3.37;;;6.10;99.90;;;;;;5045880;28;20452;-55
2022/01/19 01:35:26;;;;;;;10.73;3.33;;;6.10;99.90;;;;;;5046035;28;20512;-57
2022/01/19 01:37:53;;;;;;;12.03;3.10;;;6.10;99.90;;;;;;5044424;28;20499;-58
2022/01/19 01:40:24;;;;;;;4.70;2.50;;;6.10;99.90;;;;;;5044911;28;20579;-57
2022/01/19 01:42:51;;;;;;;12.93;4.20;;;6.10;99.90;;;;;;5044912;28;20506;-54
2022/01/19 01:45:23;;;;;;;4.17;2.87;;;6.20;99.90;;;;;;5046440;28;20548;-55
2022/01/19 01:47:57;;;;;;;5.47;4.17;;;6.10;99.90;;;;;;5046116;28;20468;-56
2022/01/19 01:53:26;;;;;;;5.60;3.37;;;6.10;99.90;;;;;;5044631;28;20471;-57
2022/01/19 01:55:57;;;;;;;8.13;3.70;;;6.00;99.90;;;;;;5045162;28;20502;-53
2022/01/19 01:58:23;;;;;;;7.27;3.57;;;6.00;99.90;;;;;;5044944;28;20515;-57
2022/01/19 02:00:51;;;;;;;7.53;2.90;;;6.10;99.90;;;;;;5046449;28;20479;-54
2022/01/19 02:03:17;;;;;;;9.50;5.00;;;6.10;99.90;;;;;;5046418;28;20476;-56
2022/01/19 02:06:02;;;;;;;5.97;3.47;;;6.10;99.90;;;;;;5045535;28;20463;-53
2022/01/19 02:08:36;;;;;;;9.40;5.63;;;6.10;99.90;;;;;;5044190;28;20519;-51
2022/01/19 02:11:28;;;;;;;11.23;4.40;;;6.10;99.90;;;;;;5044377;28;20479;-55
2022/01/19 02:16:47;;;;;;;4.17;2.90;;;6.10;99.90;;;;;;5044923;28;20536;-56
2022/01/19 02:22:02;;;;;;;10.73;4.40;;;6.10;99.90;;;;;;5044981;28;20456;-57
2022/01/19 02:24:32;;;;;;;17.83;4.77;;;6.10;99.90;;;;;;5044146;28;20499;-55
2022/01/19 02:27:06;;;;;;;9.93;3.90;;;6.20;99.90;;;;;;5042965;28;20903;-52
2022/01/19 02:30:29;;;;;;;8.87;3.70;;;6.20;99.90;;;;;;5044258;28;20471;-55
2022/01/19 02:40:51;;;;;;;13.63;5.13;;;6.10;99.90;;;;;;5044438;28;20488;-57
2022/01/19 02:43:23;;;;;;;6.57;3.30;;;6.10;99.90;;;;;;5044438;28;20481;-55
2022/01/19 02:51:19;;;;;;;7.83;3.30;;;6.00;99.90;;;;;;5043679;28;20556;-56
2022/01/19 02:53:47;;;;;;;6.40;4.27;;;6.00;99.90;;;;;;5043448;28;20459;-52
2022/01/19 02:56:20;;;;;;;4.33;2.70;;;6.00;99.90;;;;;;5043456;28;20464;-58
2022/01/19 02:58:50;;;;;;;7.70;4.10;;;6.00;99.90;;;;;;5043424;28;20484;-57
2022/01/19 03:09:31;;;;;;;13.77;4.67;;;6.10;99.90;;;;;;5043564;28;20448;-55
2022/01/19 03:11:58;;;;;;;3.60;2.50;;;6.10;99.90;;;;;;5042869;28;20472;-56
2022/01/19 03:14:24;;;;;;;7.23;3.90;;;6.10;99.90;;;;;;5043288;28;20479;-56
2022/01/19 03:16:51;;;;;;;16.23;4.30;;;6.10;99.90;;;;;;5043413;28;20938;-56
2022/01/19 03:19:18;;;;;;;6.30;3.60;;;6.10;99.90;;;;;;5043415;28;20485;-54
2022/01/19 03:21:45;;;;;;;8.70;5.07;;;6.00;99.90;;;;;;5042392;28;20519;-56
2022/01/19 03:24:12;;;;;;;12.37;5.33;;;6.00;99.90;;;;;;5040356;28;20444;-55
2022/01/19 03:26:40;;;;;;;5.57;3.40;;;6.00;99.90;;;;;;5039638;28;20444;-55
2022/01/19 03:29:07;;;;;;;9.80;3.83;;;6.00;99.90;;;;;;5040082;28;20457;-57
2022/01/19 03:31:34;;;;;;;9.07;4.07;;;6.00;99.90;;;;;;5039726;28;20429;-57
2022/01/19 03:34:01;;;;;;;8.17;4.90;;;6.00;99.90;;;;;;5039766;28;20514;-56
2022/01/19 03:36:28;;;;;;;8.20;4.20;;;6.10;99.90;;;;;;5039397;28;20472;-56
2022/01/19 03:38:55;;;;;;;5.93;3.37;;;6.10;99.90;;;;;;5040146;28;20801;-56
2022/01/19 03:41:22;;;;;;;9.60;4.70;;;6.00;99.90;;;;;;5040141;28;20964;-57
2022/01/19 03:43:50;;;;;;;15.60;7.10;;;6.00;99.90;;;;;;5039709;28;20472;-55
2022/01/19 03:46:16;;;;;;;14.13;5.50;;;6.00;99.90;;;;;;5040218;28;20453;-57
2022/01/19 03:48:52;;;;;;;13.63;5.20;;;6.00;99.90;;;;;;5040058;28;20456;-56
2022/01/19 03:51:19;;;;;;;6.70;4.70;;;6.00;99.90;;;;;;5039998;28;20436;-55
2022/01/19 03:53:46;;;;;;;14.00;4.60;;;6.00;99.90;;;;;;5039455;28;20510;-55
2022/01/19 03:56:13;;;;;;;9.67;5.27;;;6.00;99.90;;;;;;5039172;28;20473;-53
2022/01/19 03:58:40;;;;;;;20.93;5.77;;;6.10;99.90;;;;;;5039056;28;20951;-55
2022/01/19 04:01:09;;;;;;;8.93;5.37;;;6.10;99.90;;;;;;5039300;28;20449;-53
2022/01/19 04:04:06;;;;;;;18.10;6.20;;;6.10;99.90;;;;;;5040556;28;21064;-55
2022/01/19 04:06:53;;;;;;;8.13;4.47;;;6.10;99.90;;;;;;5040472;28;20433;-55
2022/01/19 04:09:19;;;;;;;10.50;4.80;;;6.10;99.90;;;;;;5039172;28;20547;-56
2022/01/19 04:11:46;;;;;;;8.40;5.43;;;6.20;99.90;;;;;;5039000;28;20461;-56
2022/01/19 04:14:25;;;;;;;11.20;4.70;;;6.10;99.90;;;;;;5039627;28;20511;-57
2022/01/19 04:16:55;;;;;;;6.23;4.03;;;6.10;99.90;;;;;;5039061;28;20475;-55
2022/01/19 04:19:27;;;;;;;10.50;3.17;;;6.10;99.90;;;;;;5038604;28;20512;-55
2022/01/19 04:21:55;;;;;;;15.07;4.93;;;6.10;99.90;;;;;;5039727;28;20491;-56
2022/01/19 04:24:23;;;;;;;7.20;4.60;;;6.10;99.90;;;;;;5039658;28;20433;-57
2022/01/19 04:29:41;;;;;;;5.70;3.60;;;6.10;99.90;;;;;;5038821;28;20517;-55
2022/01/19 04:32:13;;;;;;;6.53;4.50;;;6.00;99.90;;;;;;5039732;28;20468;-57
2022/01/19 04:34:41;;;;;;;27.80;5.00;;;6.00;99.90;;;;;;5039919;28;20461;-56
2022/01/19 04:48:16;;;;;;;6.80;4.67;;;5.90;99.90;;;;;;5006410;28;20441;-55
2022/01/19 05:01:46;;;;;;;13.33;4.30;;;5.90;99.90;;;;;;5042920;28;20506;-54
2022/01/19 05:04:31;;;;;;;4.80;3.10;;;5.90;99.90;;;;;;5043156;28;20844;-52
2022/01/19 05:07:09;;;;;;;7.50;4.57;;;5.90;99.90;;;;;;5042601;28;20444;-54
2022/01/19 05:10:00;;;;;;;6.83;4.40;;;5.80;99.90;;;;;;5043170;28;20532;-54
2022/01/19 05:15:12;;;;;;;5.23;3.67;;;5.80;99.90;;;;;;5045464;28;20527;-55
2022/01/19 05:17:39;;;;;;;6.07;4.63;;;5.80;99.90;;;;;;5043994;28;20480;-57
2022/01/19 05:20:10;;;;;;;16.00;5.17;;;5.80;99.90;;;;;;5042901;28;20486;-56
2022/01/19 05:22:37;;;;;;;9.10;3.73;;;5.80;99.90;;;;;;5042779;28;20432;-55
2022/01/19 05:25:04;;;;;;;6.63;4.13;;;5.80;99.90;;;;;;5042933;28;20491;-55
2022/01/19 05:27:30;;;;;;;6.50;3.93;;;5.80;99.90;;;;;;5043088;28;20477;-56
2022/01/19 05:29:57;;;;;;;8.70;4.00;;;5.70;99.90;;;;;;5042715;28;20449;-56
2022/01/19 05:32:24;;;;;;;7.07;4.03;;;5.80;99.90;;;;;;5042292;28;20456;-56
2022/01/19 05:34:51;;;;;;;8.20;3.73;;;5.80;99.90;;;;;;5041585;28;20518;-55
2022/01/19 05:37:19;;;;;;;6.43;3.97;;;5.80;99.90;;;;;;5042015;28;20449;-56
2022/01/19 05:39:45;;;;;;;8.80;3.77;;;5.80;99.90;;;;;;5041686;28;20961;-56
2022/01/19 05:42:15;;;;;;;10.43;3.87;;;5.90;99.90;;;;;;5041644;28;20479;-57
2022/01/19 05:44:43;;;;;;;8.00;3.73;;;5.90;99.90;;;;;;5041819;28;20481;-56
2022/01/19 05:47:10;;;;;;;7.30;4.23;;;5.90;99.90;;;;;;5042250;28;20448;-56
2022/01/19 05:49:37;;;;;;;5.13;3.40;;;5.90;99.90;;;;;;5042184;28;20441;-54
2022/01/19 05:52:04;;;;;;;9.03;5.17;;;5.90;99.90;;;;;;5041916;28;20468;-54
2022/01/19 05:54:32;;;;;;;9.27;4.03;;;5.90;99.90;;;;;;5042049;28;20441;-55
2022/01/19 05:56:59;;;;;;;7.67;4.70;;;5.80;99.90;;;;;;5042684;28;21045;-57
2022/01/19 05:59:25;;;;;;;15.80;3.53;;;5.70;99.90;;;;;;5041784;28;20484;-56
2022/01/19 06:01:52;;;;;;;13.83;4.63;;;5.80;99.90;;;;;;5041289;28;20526;-55
2022/01/19 06:04:19;;;;;;;5.20;3.50;;;5.80;99.90;;;;;;5041921;28;20575;-57
2022/01/19 06:06:45;;;;;;;4.33;3.73;;;5.80;99.90;;;;;;5041534;28;20440;-57
2022/01/19 06:09:22;;;;;;;4.90;3.10;;;5.70;99.90;;;;;;5041306;28;20453;-56
2022/01/19 06:11:51;;;;;;;10.30;5.23;;;5.80;99.90;;;;;;5041769;28;20471;-52
2022/01/19 06:14:17;;;;;;;8.80;4.33;;;5.80;99.90;;;;;;5041497;28;20506;-54
2022/01/19 06:16:45;;;;;;;8.40;4.53;;;5.80;99.90;;;;;;5040631;28;20476;-56
2022/01/19 06:19:13;;;;;;;10.20;4.13;;;5.80;99.90;;;;;;5040810;28;20519;-56
2022/01/19 06:21:40;;;;;;;11.10;4.13;;;5.80;99.90;;;;;;5040347;28;20960;-49
2022/01/19 06:24:07;;;;;;;12.23;5.20;;;5.80;99.90;;;;;;5042110;28;20445;-50
2022/01/19 06:26:35;;;;;;;7.97;3.77;;;5.80;99.90;;;;;;5047080;28;20453;-55
2022/01/19 06:29:04;;;;;;;10.00;4.50;;;5.80;99.90;;;;;;5047390;28;20469;-56
2022/01/19 06:31:31;;;;;;;8.73;4.20;;;5.80;99.90;;;;;;5047026;28;20457;-56
2022/01/19 06:33:58;;;;;;;14.60;6.13;;;5.80;99.90;;;;;;5046880;28;20452;-53
2022/01/19 06:36:25;;;;;;;13.17;4.00;;;5.80;99.90;;;;;;5046052;28;20448;-55
2022/01/19 06:38:51;;;;;;;8.10;5.03;;;5.80;99.90;;;;;;5047413;28;20481;-55
2022/01/19 06:41:18;;;;;;;7.50;4.63;;;5.80;99.90;;;;;;5047058;28;20464;-56
2022/01/19 06:43:45;;;;;;;14.47;5.83;;;5.80;99.90;;;;;;5047528;28;20514;-55
2022/01/19 06:46:13;;;;;;;16.30;5.67;;;5.80;99.90;;;;;;5063550;28;20447;-51
2022/01/19 06:48:40;;;;;;;9.07;5.40;;;5.80;99.90;;;;;;5055110;28;20495;-58
2022/01/19 06:51:07;;;;;;;14.03;5.57;;;5.80;99.90;;;;;;5054794;28;20459;-56
2022/01/19 06:53:34;;;;;;;11.03;5.00;;;5.80;99.90;;;;;;5054346;28;20530;-57
2022/01/19 06:56:00;;;;;;;9.07;5.10;;;5.80;99.90;;;;;;5065276;28;20428;-55
2022/01/19 06:58:28;;;;;;;7.70;5.20;;;5.80;99.90;;;;;;5064656;28;20489;-56
2022/01/19 07:00:56;;;;;;;10.57;4.60;;;5.80;99.90;;;;;;5070080;28;20456;-57
2022/01/19 07:03:25;;;;;;;16.33;5.70;;;5.80;99.90;;;;;;5059613;28;20513;-56
2022/01/19 07:05:55;;;;;;;5.53;3.80;;;6.40;99.90;;;;;;5056829;28;21137;-58
2022/01/19 07:08:22;;;;;;;9.70;4.80;;;6.60;99.90;;;;;;5058833;28;20459;-58
2022/01/19 07:10:48;;;;;;;5.50;3.87;;;6.40;99.90;;;;;;5059415;28;20464;-58
2022/01/19 07:13:17;;;;;;;11.40;3.77;;;6.30;99.90;;;;;;5059314;28;20509;-55
2022/01/19 07:15:44;;;;;;;7.60;5.87;;;6.20;99.90;;;;;;5059936;28;20444;-57
2022/01/19 07:18:10;;;;;;;13.03;4.40;;;6.20;99.90;;;;;;5059894;28;20498;-57
2022/01/19 07:20:38;;;;;;;7.60;4.03;;;6.20;99.90;;;;;;5059316;28;20891;-57
2022/01/19 07:23:05;;;;;;;7.73;3.87;;;6.10;99.90;;;;;;5059192;28;20538;-57
2022/01/19 07:25:32;;;;;;;6.70;3.57;;;6.00;99.90;;;;;;5060234;28;20493;-56
2022/01/19 07:27:58;;;;;;;12.07;5.83;;;5.90;99.90;;;;;;5060153;28;20447;-58
2022/01/19 07:30:25;;;;;;;8.20;4.30;;;5.80;99.90;;;;;;5059900;28;20521;-57
2022/01/19 07:32:52;;;;;;;8.70;4.07;;;5.80;99.90;;;;;;5059411;28;20441;-55
2022/01/19 07:35:20;;;;;;;5.13;3.60;;;5.80;99.90;;;;;;5059452;28;20494;-58
2022/01/19 07:37:52;;;;;;;6.90;4.00;;;5.80;99.90;;;;;;5060070;28;20451;-57
2022/01/19 07:40:19;;;;;;;5.67;3.70;;;5.80;99.90;;;;;;5061755;28;20463;-57
2022/01/19 07:42:46;;;;;;;9.67;3.97;;;5.80;99.90;;;;;;5061152;28;20515;-56
2022/01/19 07:45:13;;;;;;;8.07;4.60;;;5.80;99.90;;;;;;5059853;28;20816;-54
2022/01/19 07:47:40;;;;;;;33.37;5.67;;;5.80;99.90;;;;;;5059669;28;20463;-56
2022/01/19 07:50:07;;;;;;;5.43;3.00;;;5.90;99.90;;;;;;5058944;28;20440;-58
2022/01/19 07:52:34;;;;;;;7.77;5.27;;;6.00;99.90;;;;;;5059253;28;20519;-54
2022/01/19 07:55:02;;;;;;;9.57;3.73;;;6.00;99.90;;;;;;5059076;28;20459;-55
2022/01/19 07:57:29;;;;;;;6.67;3.57;;;6.20;99.90;;;;;;5058939;28;20505;-53
2022/01/19 07:59:56;;;;;;;5.67;3.00;;;6.20;99.90;;;;;;5058516;28;20487;-55
2022/01/19 08:02:30;;;;;;;4.67;2.80;;;6.10;99.90;;;;;;5058712;28;20481;-56
2022/01/19 08:04:57;;;;;;;5.27;3.50;;;6.10;99.90;;;;;;5058797;28;20439;-57
2022/01/19 08:07:23;;;;;;;12.40;4.60;;;6.00;99.90;;;;;;5058995;28;20444;-57
2022/01/19 08:09:50;;;;;;;3.53;2.83;;;6.00;99.90;;;;;;5058937;28;20443;-57
2022/01/19 08:12:19;;;;;;;7.73;2.97;;;5.90;99.90;;;;;;5058918;28;20506;-55
2022/01/19 08:14:45;;;;;;;3.73;2.93;;;5.90;99.90;;;;;;5058956;28;20491;-58
2022/01/19 08:17:14;;;;;;;7.17;3.07;;;5.90;99.90;;;;;;5059465;28;20452;-54
2022/01/19 08:19:41;;;;;;;7.20;4.40;;;5.80;99.90;;;;;;5059163;28;20821;-58
2022/01/19 08:22:07;;;;;;;17.70;4.77;;;5.80;99.90;;;;;;5059272;28;20459;-58
2022/01/19 08:24:34;;;;;;;5.33;3.43;;;5.70;99.90;;;;;;5060932;28;20479;-57
2022/01/19 08:27:01;;;;;;;4.73;2.70;;;5.70;99.90;;;;;;5063025;28;20458;-58
2022/01/19 08:29:28;;;;;;;4.50;4.10;;;5.60;99.90;;;;;;5063570;28;20441;-57
2022/01/19 08:31:55;;;;;;;3.80;2.53;;;5.60;99.90;;;;;;5063134;28;20432;-59
2022/01/19 08:34:22;;;;;;;6.57;3.70;;;5.50;99.90;;;;;;5062585;28;20458;-56
2022/01/19 08:36:49;;;;;;;8.90;3.53;;;5.50;99.90;;;;;;5062629;28;20464;-57
2022/01/19 08:39:16;;;;;;;9.60;4.57;;;5.50;99.90;;;;;;5062504;28;20463;-57
2022/01/19 08:41:42;;;;;;;4.50;3.10;;;5.50;99.90;;;;;;5062703;28;20455;-57
2022/01/19 08:44:09;;;;;;;7.57;4.50;;;5.50;99.90;;;;;;5063264;28;20424;-58
2022/01/19 08:46:39;;;;;;;11.23;4.63;;;5.50;99.90;;;;;;5062777;28;20455;-57
2022/01/19 08:49:05;;;;;;;5.90;4.80;;;5.40;99.90;;;;;;5065335;28;20467;-56
2022/01/19 08:51:32;;;;;;;8.73;3.60;;;5.30;99.90;;;;;;5065821;28;20451;-59
2022/01/19 08:53:59;;;;;;;9.70;3.40;;;5.30;99.90;;;;;;5063804;28;20486;-58
2022/01/19 08:56:26;;;;;;;5.40;3.10;;;5.30;99.90;;;;;;5063395;28;20494;-58
2022/01/19 08:58:53;;;;;;;6.80;3.00;;;5.30;99.90;;;;;;5063549;28;20443;-55
2022/01/19 09:01:19;;;;;;;5.03;3.33;;;5.30;99.90;;;;;;5063330;28;20526;-56
2022/01/19 09:03:48;;;;;;;6.53;3.37;;;5.30;99.90;;;;;;5063914;28;20521;-58
2022/01/19 09:06:14;;;;;;;9.33;5.20;;;5.20;99.90;;;;;;5062773;28;20917;-57
2022/01/19 09:08:41;;;;;;;7.40;4.87;;;5.20;99.90;;;;;;5063449;28;20440;-56
2022/01/19 09:11:09;;;;;;;8.40;4.57;;;5.20;99.90;;;;;;5064324;28;20912;-58
2022/01/19 09:13:36;;;;;;;11.70;5.03;;;5.30;99.90;;;;;;5063271;28;20548;-58
2022/01/19 09:16:04;;;;;;;5.20;3.93;;;5.30;99.90;;;;;;5062764;28;20448;-56
2022/01/19 09:18:30;;;;;;;4.60;3.30;;;5.40;99.90;;;;;;5062691;28;20468;-58
2022/01/19 09:20:59;;;;;;;9.13;3.93;;;5.40;99.90;;;;;;5062594;28;21025;-58
2022/01/19 09:23:26;;;;;;;6.53;3.90;;;5.40;99.90;;;;;;5062298;28;21309;-56
2022/01/19 09:25:52;;;;;;;4.90;3.80;;;5.50;99.90;;;;;;5062615;28;20478;-55
2022/01/19 09:28:19;;;;;;;5.97;3.40;;;5.60;99.90;;;;;;5061332;28;20459;-55
2022/01/19 09:30:46;;;;;;;9.73;4.60;;;5.60;99.90;;;;;;5061160;28;20483;-58
2022/01/19 09:33:19;;;;;;;8.00;4.57;;;5.70;99.90;;;;;;5061097;28;20493;-58
2022/01/19 09:35:52;;;;;;;10.80;4.93;;;5.80;99.90;;;;;;5061219;28;20428;-58
2022/01/19 09:38:27;;;;;;;10.53;6.23;;;5.90;99.90;;;;;;5061161;28;20432;-57
2022/01/19 09:40:54;;;;;;;8.03;5.30;;;6.00;99.90;;;;;;5061480;28;20467;-58
2022/01/19 09:43:22;;;;;;;4.87;3.80;;;6.10;99.90;;;;;;5062135;28;20467;-55
2022/01/19 09:45:49;;;;;;;11.30;5.10;;;6.30;99.90;;;;;;5062499;28;20836;-56
2022/01/19 09:48:15;;;;;;;7.57;4.40;;;6.50;99.90;;;;;;5060884;28;20482;-57
2022/01/19 09:50:42;;;;;;;6.27;4.63;;;7.00;99.90;;;;;;5060756;28;20448;-58
2022/01/19 09:53:12;;;;;;;9.30;4.93;;;7.50;99.90;;;;;;5060178;28;20509;-56
2022/01/19 09:55:41;;;;;;;8.50;4.27;;;7.90;99.90;;;;;;5060121;28;20537;-57
2022/01/19 09:58:09;;;;;;;8.60;6.60;;;8.00;99.90;;;;;;5062396;28;20448;-58
2022/01/19 10:00:37;;;;;;;7.40;3.57;;;8.00;99.90;;;;;;5062322;28;20513;-58
2022/01/19 10:03:16;;;;;;;7.60;4.50;;;8.00;99.90;;;;;;5059952;28;20483;-56
2022/01/19 10:05:58;;;;;;;6.17;4.17;;;8.10;99.90;;;;;;5059754;28;20446;-58
2022/01/19 10:08:33;;;;;;;8.70;4.63;;;7.90;99.90;;;;;;5059855;28;20468;-57
2022/01/19 10:11:14;;;;;;;9.77;5.40;;;7.80;99.90;;;;;;5060222;28;20446;-58
2022/01/19 10:19:16;;;;;;;7.67;4.30;;;7.40;99.90;;;;;;5059484;28;20785;-57
2022/01/19 10:22:06;;;;;;;6.67;4.40;;;7.10;99.90;;;;;;5059898;28;20475;-57
2022/01/19 10:24:37;;;;;;;6.20;3.93;;;6.90;99.90;;;;;;5060078;28;20479;-57
2022/01/19 10:27:24;;;;;;;5.87;4.00;;;6.60;99.90;;;;;;5060598;28;20881;-58
2022/01/19 10:29:53;;;;;;;8.07;4.83;;;6.40;99.90;;;;;;5060532;28;20460;-56
2022/01/19 10:32:21;;;;;;;5.90;3.50;;;6.20;99.90;;;;;;5060496;28;20739;-55
2022/01/19 10:34:48;;;;;;;8.47;4.17;;;6.10;99.90;;;;;;5060859;28;20483;-55
2022/01/19 10:37:21;;;;;;;8.60;5.53;;;6.00;99.90;;;;;;5060737;28;20444;-57
2022/01/19 10:39:51;;;;;;;10.50;5.50;;;6.00;99.90;;;;;;5061068;28;20424;-52
2022/01/19 10:42:20;;;;;;;5.73;4.40;;;5.90;99.90;;;;;;5060241;28;20471;-58
2022/01/19 10:44:49;;;;;;;12.37;6.43;;;5.80;99.90;;;;;;5059983;28;20470;-55
2022/01/19 10:47:17;;;;;;;9.53;5.63;;;5.90;99.90;;;;;;5059496;28;20525;-55
2022/01/19 10:49:49;;;;;;;7.10;5.97;;;5.90;99.90;;;;;;5059940;28;20459;-50
2022/01/19 10:52:33;;;;;;;7.63;5.67;;;5.90;99.90;;;;;;5059428;28;20478;-54
2022/01/19 10:55:01;;;;;;;18.80;9.50;;;5.90;99.90;;;;;;5060487;28;20446;-59
2022/01/19 10:57:31;;;;;;;10.43;5.50;;;5.90;99.90;;;;;;5060274;28;20451;-53
2022/01/19 11:00:16;;;;;;;8.90;4.80;;;5.90;99.90;;;;;;5060676;28;20569;-57
2022/01/19 11:02:44;;;;;;;9.50;4.17;;;5.80;99.90;;;;;;5060130;28;20518;-54
2022/01/19 11:05:10;;;;;;;5.87;4.37;;;5.80;99.90;;;;;;5061324;28;20456;-62
2022/01/19 11:07:38;;;;;;;8.13;4.93;;;5.90;99.90;;;;;;5063220;28;20456;-58
2022/01/19 11:10:10;;;;;;;7.80;5.30;;;5.80;99.90;;;;;;5061895;28;20494;-57
2022/01/19 11:12:44;;;;;;;13.17;6.20;;;5.80;99.90;;;;;;5060661;28;20472;-57
2022/01/19 11:15:14;;;;;;;6.27;4.80;;;5.80;99.90;;;;;;5060335;28;20471;-58
2022/01/19 11:17:43;;;;;;;8.43;5.40;;;5.70;99.90;;;;;;5059383;28;20489;-58
2022/01/19 11:20:12;;;;;;;9.80;6.13;;;5.70;99.90;;;;;;5059310;28;20522;-55
2022/01/19 11:23:00;;;;;;;8.03;5.30;;;5.60;99.90;;;;;;5060249;28;20432;-57
2022/01/19 11:25:34;;;;;;;11.20;5.00;;;5.50;99.90;;;;;;5060507;28;20435;-58
2022/01/19 11:28:01;;;;;;;8.90;4.70;;;5.50;99.90;;;;;;5060761;28;20860;-57
2022/01/19 11:30:31;;;;;;;10.77;4.90;;;5.40;99.90;;;;;;5060517;28;20450;-55
2022/01/19 11:33:17;;;;;;;9.37;5.73;;;5.40;99.90;;;;;;5060193;28;20447;-55
2022/01/19 11:35:46;;;;;;;6.97;4.60;;;5.30;99.90;;;;;;5061062;28;20474;-57
2022/01/19 11:38:34;;;;;;;11.40;6.50;;;5.30;99.90;;;;;;5061188;28;20444;-54
2022/01/19 11:41:03;;;;;;;11.47;6.07;;;5.10;99.90;;;;;;5061576;28;20557;-57
2022/01/19 11:43:32;;;;;;;11.53;7.00;;;5.00;99.90;;;;;;5060964;28;20471;-57
2022/01/19 11:46:03;;;;;;;6.87;4.90;;;4.90;99.90;;;;;;5060895;28;20888;-55
2022/01/19 11:48:32;;;;;;;8.40;5.27;;;4.90;99.90;;;;;;5061274;28;20533;-57
2022/01/19 11:51:27;;;;;;;10.10;5.43;;;4.90;99.90;;;;;;5060583;28;20538;-57
2022/01/19 11:54:06;;;;;;;10.80;6.90;;;4.80;99.90;;;;;;5060976;28;20479;-57
2022/01/19 11:56:54;;;;;;;10.37;5.80;;;4.80;99.90;;;;;;5060842;28;20443;-55
2022/01/19 11:59:21;;;;;;;6.23;5.10;;;4.80;99.90;;;;;;5063122;28;20463;-57
2022/01/19 12:01:49;;;;;;;9.20;5.50;;;4.90;99.90;;;;;;5064269;28;20537;-57
2022/01/19 12:04:19;;;;;;;7.27;5.63;;;4.90;99.90;;;;;;5064774;28;20470;-56
2022/01/19 12:06:49;;;;;;;9.20;6.97;;;4.80;99.90;;;;;;5065134;28;20447;-57
2022/01/19 12:09:17;;;;;;;10.10;6.00;;;4.80;99.90;;;;;;5064818;28;20460;-54
2022/01/19 12:11:50;;;;;;;10.80;6.10;;;4.70;99.90;;;;;;5064614;28;20556;-55
2022/01/19 12:14:20;;;;;;;14.63;7.03;;;4.70;99.90;;;;;;5065473;28;20428;-53
2022/01/19 12:17:01;;;;;;;12.50;7.93;;;4.70;99.90;;;;;;5067431;28;20468;-59
2022/01/19 12:19:29;;;;;;;9.87;5.90;;;4.60;99.90;;;;;;5066703;28;20482;-58
2022/01/19 12:22:11;;;;;;;14.10;6.23;;;4.60;99.90;;;;;;5064993;28;20495;-56
2022/01/19 12:24:41;;;;;;;11.67;5.80;;;4.50;99.90;;;;;;5064473;28;20505;-57
2022/01/19 12:27:24;;;;;;;11.33;6.47;;;4.50;99.90;;;;;;5064650;28;20539;-56
2022/01/19 12:29:53;;;;;;;16.40;7.60;;;4.50;99.90;;;;;;5064115;28;20408;-56
2022/01/19 12:32:37;;;;;;;10.93;5.53;;;4.50;99.90;;;;;;5064580;28;20435;-57
2022/01/19 12:35:20;;;;;;;11.30;5.77;;;4.40;99.90;;;;;;5065013;28;20803;-57
2022/01/19 12:37:49;;;;;;;8.70;6.27;;;4.40;99.90;;;;;;5065091;28;20467;-56
2022/01/19 12:40:44;;;;;;;11.90;7.10;;;4.40;99.90;;;;;;5064972;28;20446;-58
2022/01/19 12:43:14;;;;;;;10.70;5.90;;;4.40;99.90;;;;;;5057276;28;20451;-56
2022/01/19 12:45:48;;;;;;;26.37;7.17;;;4.40;99.90;;;;;;5064778;28;20515;-57
2022/01/19 12:48:34;;;;;;;10.60;7.27;;;4.40;99.90;;;;;;5064137;28;20424;-56
2022/01/19 12:51:01;;;;;;;8.17;5.20;;;4.50;99.90;;;;;;5064874;28;20566;-58
2022/01/19 12:53:28;;;;;;;7.73;5.87;;;4.50;99.90;;;;;;5064933;28;20454;-57
2022/01/19 12:55:57;;;;;;;10.93;7.10;;;4.40;99.90;;;;;;5064512;28;20513;-55
2022/01/19 12:58:31;;;;;;;10.13;6.07;;;4.40;99.90;;;;;;5064145;28;20454;-55
2022/01/19 13:01:01;;;;;;;13.30;6.87;;;4.40;99.90;;;;;;5064048;28;20487;-56
2022/01/19 13:03:34;;;;;;;11.80;6.33;;;4.40;99.90;;;;;;5064051;28;20432;-57
2022/01/19 13:06:03;;;;;;;15.03;8.30;;;4.40;99.90;;;;;;5064143;28;20527;-56
2022/01/19 13:08:58;;;;;;;9.43;6.00;;;4.50;99.90;;;;;;5063835;28;20903;-55
2022/01/19 13:11:33;;;;;;;12.20;7.20;;;4.50;99.90;;;;;;5063085;28;20432;-57
2022/01/19 13:14:03;;;;;;;8.37;4.97;;;4.50;99.90;;;;;;5063678;28;20459;-57
2022/01/19 13:16:36;;;;;;;8.70;6.03;;;4.50;99.90;;;;;;5064296;28;20464;-55
2022/01/19 13:19:11;;;;;;;8.07;6.30;;;4.50;99.90;;;;;;5065598;28;20494;-57
2022/01/19 13:21:39;;;;;;;10.40;5.80;;;4.50;99.90;;;;;;5064445;28;20481;-57
2022/01/19 13:24:10;;;;;;;9.33;4.97;;;4.50;99.90;;;;;;5065822;28;20984;-54
2022/01/19 13:26:44;;;;;;;9.80;6.90;;;4.40;99.90;;;;;;5066338;28;20452;-57
2022/01/19 13:29:22;;;;;;;14.20;6.00;;;4.50;99.90;;;;;;5063502;28;20478;-57
2022/01/19 13:32:02;;;;;;;12.50;6.63;;;4.40;99.90;;;;;;5063939;28;20430;-55
2022/01/19 13:34:32;;;;;;;5.40;3.60;;;4.40;99.90;;;;;;5064151;28;20936;-50
2022/01/19 13:37:02;;;;;;;10.87;5.70;;;4.40;99.90;;;;;;5065310;28;20531;-57
2022/01/19 13:39:32;;;;;;;8.57;7.20;;;4.40;99.90;;;;;;5065288;28;20440;-53
2022/01/19 13:42:01;;;;;;;11.47;7.23;;;4.40;99.90;;;;;;5064208;28;20474;-52
2022/01/19 13:44:34;;;;;;;12.17;7.07;;;4.40;99.90;;;;;;5063748;28;20498;-56
2022/01/19 13:47:14;;;;;;;12.57;6.87;;;4.40;99.90;;;;;;5063455;28;20436;-55
2022/01/19 13:49:43;;;;;;;14.10;8.37;;;4.40;99.90;;;;;;5062707;28;20882;-55
2022/01/19 13:52:11;;;;;;;12.10;9.00;;;4.50;99.90;;;;;;5063477;28;20488;-56
2022/01/19 13:54:41;;;;;;;13.20;7.70;;;4.40;99.90;;;;;;5063152;28;20455;-57
2022/01/19 13:57:08;;;;;;;10.50;6.87;;;4.40;99.90;;;;;;5063421;28;20487;-55
2022/01/19 13:59:35;;;;;;;11.10;8.30;;;4.50;99.90;;;;;;5063429;28;20531;-57
2022/01/19 14:02:14;;;;;;;10.87;7.20;;;4.50;99.90;;;;;;5063245;28;21029;-56
2022/01/19 14:04:52;;;;;;;17.00;8.07;;;4.50;99.90;;;;;;5062812;28;20571;-57
2022/01/19 14:07:19;;;;;;;8.47;5.67;;;4.50;99.90;;;;;;5062155;28;20462;-56
2022/01/19 14:09:47;;;;;;;9.07;6.37;;;4.60;99.90;;;;;;5067214;28;20427;-53
2022/01/19 14:12:19;;;;;;;13.07;7.50;;;4.60;99.90;;;;;;5071268;28;20450;-57
2022/01/19 14:14:55;;;;;;;17.07;9.00;;;4.60;99.90;;;;;;5055766;28;20474;-56